Time;durP1;ratioP1;P1;durP2;ratioP2;P2;SDS_P1;SDS_P2;PMS_P1;PMS_P2;Temp;Humidity;BMP_temperature;BMP_pressure;BME280_temperature;BME280_humidity;BME280_pressure;Samples;Min_cycle;Max_cycle;Signal;HPM_P1;HPM_P2
2022/01/04 00:00:05;;;;;;;4.60;0.90;;;10.80;99.90;;;;;;5069040;28;20387;-53
2022/01/04 00:02:31;;;;;;;4.40;1.08;;;10.80;99.90;;;;;;5070651;28;20376;-53
2022/01/04 00:04:57;;;;;;;4.67;1.07;;;10.80;99.90;;;;;;5071335;28;20379;-53
2022/01/04 00:07:22;;;;;;;4.00;1.00;;;10.70;99.90;;;;;;5070539;28;20791;-54
2022/01/04 00:09:51;;;;;;;4.93;1.27;;;10.80;99.90;;;;;;5071468;28;20372;-53
2022/01/04 00:15:01;;;;;;;4.38;1.00;;;10.70;99.90;;;;;;5071002;28;20434;-54
2022/01/04 00:17:28;;;;;;;4.10;1.00;;;10.70;99.90;;;;;;5052592;28;20408;-54
2022/01/04 00:19:54;;;;;;;4.10;1.08;;;10.60;99.90;;;;;;5071280;28;20475;-53
2022/01/04 00:22:20;;;;;;;3.50;1.00;;;10.60;99.90;;;;;;5070291;28;20467;-54
2022/01/04 00:24:46;;;;;;;3.70;1.10;;;10.60;99.90;;;;;;5071468;28;20380;-53
2022/01/04 00:27:12;;;;;;;3.80;0.90;;;10.60;99.90;;;;;;5071029;28;20380;-53
2022/01/04 00:29:37;;;;;;;4.28;1.20;;;10.60;99.90;;;;;;5070331;28;20581;-54
2022/01/04 00:32:03;;;;;;;4.50;1.20;;;10.50;99.90;;;;;;5068394;28;20390;-54
2022/01/04 00:34:29;;;;;;;4.15;1.15;;;10.60;99.90;;;;;;5052096;28;20787;-54
2022/01/04 00:36:55;;;;;;;4.70;1.10;;;10.60;99.90;;;;;;5070818;28;20412;-53
2022/01/04 00:39:20;;;;;;;4.97;1.20;;;10.60;99.90;;;;;;5070291;28;20857;-53
2022/01/04 00:41:46;;;;;;;4.40;1.00;;;10.60;99.90;;;;;;5070422;28;20387;-54
2022/01/04 00:44:12;;;;;;;5.60;1.20;;;10.60;99.90;;;;;;5070863;28;20388;-54
2022/01/04 00:46:37;;;;;;;3.70;0.90;;;10.60;99.90;;;;;;5052088;28;20384;-54
2022/01/04 00:49:10;;;;;;;3.97;1.10;;;10.70;99.90;;;;;;5070579;28;20391;-54
2022/01/04 00:51:41;;;;;;;3.70;0.95;;;10.70;99.90;;;;;;5069973;28;20442;-54
2022/01/04 00:54:07;;;;;;;3.78;1.30;;;10.80;99.90;;;;;;5068190;28;20435;-53
2022/01/04 00:56:33;;;;;;;4.78;1.15;;;10.80;99.90;;;;;;5069790;28;20412;-53
2022/01/04 00:58:59;;;;;;;5.23;1.40;;;10.80;99.90;;;;;;5070615;28;20871;-54
2022/01/04 01:01:25;;;;;;;4.05;1.15;;;10.90;99.90;;;;;;5069653;28;20434;-53
2022/01/04 01:03:51;;;;;;;4.00;1.30;;;10.90;99.90;;;;;;5070411;28;20376;-53
2022/01/04 01:06:17;;;;;;;5.57;1.40;;;10.90;99.90;;;;;;5067110;28;20412;-53
2022/01/04 01:08:43;;;;;;;5.50;1.10;;;10.80;99.90;;;;;;5069255;28;20504;-53
2022/01/04 01:11:10;;;;;;;4.00;1.13;;;11.00;99.90;;;;;;5069832;28;20732;-53
2022/01/04 01:13:36;;;;;;;3.83;1.10;;;10.80;99.90;;;;;;5067848;28;20779;-53
2022/01/04 01:16:02;;;;;;;4.10;1.30;;;10.80;99.90;;;;;;5067728;28;20404;-53
2022/01/04 01:18:28;;;;;;;4.50;1.10;;;10.80;99.90;;;;;;5067734;28;20387;-53
2022/01/04 01:20:54;;;;;;;3.88;1.08;;;10.80;99.90;;;;;;5070084;28;20388;-53
2022/01/04 01:23:22;;;;;;;4.80;1.10;;;10.80;99.90;;;;;;5069459;28;20667;-53
2022/01/04 01:25:49;;;;;;;4.10;1.10;;;10.90;99.90;;;;;;5069710;28;20376;-52
2022/01/04 01:28:15;;;;;;;4.20;1.25;;;10.90;99.90;;;;;;5069820;28;20380;-53
2022/01/04 01:30:43;;;;;;;3.90;1.20;;;10.90;99.90;;;;;;5069274;28;20372;-53
2022/01/04 01:33:09;;;;;;;3.63;0.90;;;10.90;99.90;;;;;;5069623;28;20471;-53
2022/01/04 01:35:37;;;;;;;3.90;1.00;;;10.80;99.90;;;;;;5068832;28;21214;-53
2022/01/04 01:38:03;;;;;;;4.50;1.10;;;10.80;99.90;;;;;;5069804;28;20895;-53
2022/01/04 01:40:30;;;;;;;4.78;1.50;;;10.80;99.90;;;;;;5068816;28;20483;-53
2022/01/04 01:42:56;;;;;;;5.50;1.10;;;10.80;99.90;;;;;;5069315;28;20773;-53
2022/01/04 01:45:23;;;;;;;4.82;1.25;;;10.90;99.90;;;;;;5068905;28;20482;-53
2022/01/04 01:47:49;;;;;;;3.40;1.00;;;10.90;99.90;;;;;;5069698;28;20419;-53
2022/01/04 01:50:16;;;;;;;4.30;1.30;;;12.10;99.90;;;;;;5069587;28;20443;-53
2022/01/04 01:52:46;;;;;;;3.70;0.90;;;10.80;99.90;;;;;;5068861;28;20383;-53
2022/01/04 01:55:14;;;;;;;4.00;1.27;;;10.70;99.90;;;;;;5066644;28;20414;-53
2022/01/04 01:57:40;;;;;;;4.00;1.30;;;10.90;99.90;;;;;;5068586;28;20469;-53
2022/01/04 02:00:08;;;;;;;5.40;1.60;;;10.80;99.90;;;;;;5069320;28;20380;-53
2022/01/04 02:02:33;;;;;;;3.80;1.10;;;10.80;99.90;;;;;;5066218;28;20841;-53
2022/01/04 02:04:59;;;;;;;4.27;1.27;;;10.70;99.90;;;;;;5069033;28;20414;-53
2022/01/04 02:07:26;;;;;;;3.88;1.13;;;10.80;99.90;;;;;;5068144;28;20745;-53
2022/01/04 02:10:12;;;;;;;4.70;1.23;;;10.80;99.90;;;;;;5069283;28;20373;-53
2022/01/04 02:12:47;;;;;;;4.82;1.30;;;10.80;99.90;;;;;;5065823;28;20539;-53
2022/01/04 02:15:16;;;;;;;3.70;1.10;;;10.90;99.90;;;;;;5068916;28;20403;-53
2022/01/04 02:17:42;;;;;;;4.03;1.33;;;10.90;99.90;;;;;;5068663;28;20506;-53
2022/01/04 02:20:09;;;;;;;4.20;1.47;;;10.90;99.90;;;;;;5069247;28;20479;-53
2022/01/04 02:22:35;;;;;;;4.32;1.40;;;10.90;99.90;;;;;;5065806;28;20521;-53
2022/01/04 02:25:02;;;;;;;4.15;1.30;;;10.90;99.90;;;;;;5069067;28;20376;-53
2022/01/04 02:27:31;;;;;;;4.10;1.30;;;10.90;99.90;;;;;;5068056;28;20379;-53
2022/01/04 02:29:57;;;;;;;4.55;1.60;;;10.90;99.90;;;;;;5067027;28;20403;-53
2022/01/04 02:32:22;;;;;;;4.30;1.60;;;10.90;99.90;;;;;;5068236;28;20741;-53
2022/01/04 02:34:50;;;;;;;4.70;1.40;;;11.00;99.90;;;;;;5068853;28;20398;-53
2022/01/04 02:37:24;;;;;;;4.00;1.40;;;11.10;99.90;;;;;;5066333;28;20395;-53
2022/01/04 02:39:53;;;;;;;4.50;1.52;;;10.90;99.90;;;;;;5068653;28;20472;-53
2022/01/04 02:42:20;;;;;;;4.40;1.35;;;11.00;99.90;;;;;;5066310;28;20876;-53
2022/01/04 02:44:46;;;;;;;4.22;1.52;;;11.10;99.90;;;;;;5068703;28;20384;-53
2022/01/04 02:47:12;;;;;;;5.38;1.60;;;11.10;99.90;;;;;;5068959;28;20403;-54
2022/01/04 02:49:38;;;;;;;4.80;1.40;;;11.10;99.90;;;;;;5049882;28;20379;-53
2022/01/04 02:52:04;;;;;;;4.90;1.70;;;11.20;99.90;;;;;;5068991;28;20812;-54
2022/01/04 02:54:30;;;;;;;6.00;1.83;;;11.10;99.90;;;;;;5068024;28;20416;-53
2022/01/04 02:56:55;;;;;;;8.30;1.80;;;11.10;99.90;;;;;;5068635;28;20901;-53
2022/01/04 02:59:21;;;;;;;5.73;1.90;;;11.10;99.90;;;;;;5068178;28;20388;-53
2022/01/04 03:01:47;;;;;;;4.97;1.65;;;11.20;99.90;;;;;;5068749;28;20757;-53
2022/01/04 03:04:13;;;;;;;4.30;1.40;;;11.20;99.90;;;;;;5068680;28;20412;-53
2022/01/04 03:06:38;;;;;;;5.72;2.00;;;11.20;99.90;;;;;;5071645;28;20559;-53
2022/01/04 03:09:05;;;;;;;5.40;1.77;;;11.10;99.90;;;;;;5072664;28;20838;-53
2022/01/04 03:11:32;;;;;;;6.68;1.90;;;11.10;99.90;;;;;;5071842;28;20383;-53
2022/01/04 03:13:58;;;;;;;4.88;1.70;;;11.10;99.90;;;;;;5072407;28;20388;-53
2022/01/04 03:16:23;;;;;;;4.50;1.70;;;11.20;99.90;;;;;;5067802;28;20423;-53
2022/01/04 03:19:06;;;;;;;5.15;2.00;;;11.20;99.90;;;;;;5070113;28;20465;-53
2022/01/04 03:21:34;;;;;;;5.60;1.80;;;11.10;99.90;;;;;;5070446;28;20398;-53
2022/01/04 03:24:00;;;;;;;5.70;2.10;;;11.20;99.90;;;;;;5069749;28;20408;-53
2022/01/04 03:26:25;;;;;;;5.80;2.17;;;11.30;99.90;;;;;;5071442;28;20900;-53
2022/01/04 03:28:51;;;;;;;4.73;1.80;;;11.30;99.90;;;;;;5072229;28;20421;-53
2022/01/04 03:31:17;;;;;;;4.47;1.85;;;11.20;99.90;;;;;;5069714;28;20411;-53
2022/01/04 03:33:42;;;;;;;5.00;1.73;;;11.20;99.90;;;;;;5071438;28;20469;-53
2022/01/04 03:36:08;;;;;;;5.50;1.70;;;11.20;99.90;;;;;;5072059;28;20378;-53
2022/01/04 03:38:34;;;;;;;4.35;1.50;;;11.20;99.90;;;;;;5071466;28;20383;-53
2022/01/04 03:41:00;;;;;;;6.10;2.00;;;11.20;99.90;;;;;;5071784;28;20388;-53
2022/01/04 03:43:25;;;;;;;7.00;1.73;;;11.20;99.90;;;;;;5071169;28;20413;-53
2022/01/04 03:45:51;;;;;;;6.70;1.63;;;11.20;99.90;;;;;;5072325;28;20857;-53
2022/01/04 03:48:18;;;;;;;5.45;1.85;;;11.20;99.90;;;;;;5072227;28;21396;-53
2022/01/04 03:50:44;;;;;;;5.47;1.67;;;11.20;99.90;;;;;;5071506;28;20379;-53
2022/01/04 03:53:09;;;;;;;4.97;1.73;;;11.20;99.90;;;;;;5071884;28;20437;-53
2022/01/04 03:55:35;;;;;;;4.17;1.50;;;11.20;99.90;;;;;;5071007;28;20455;-53
2022/01/04 03:58:01;;;;;;;5.25;1.50;;;11.30;99.90;;;;;;5070809;28;20421;-53
2022/01/04 04:00:27;;;;;;;4.93;1.73;;;11.30;99.90;;;;;;5070814;28;20388;-53
2022/01/04 04:02:52;;;;;;;5.50;1.60;;;11.20;99.90;;;;;;5071583;28;20487;-54
2022/01/04 04:05:18;;;;;;;4.45;1.40;;;11.30;99.90;;;;;;5071458;28;20486;-53
2022/01/04 04:07:44;;;;;;;4.25;1.50;;;11.30;99.90;;;;;;5070733;28;20388;-53
2022/01/04 04:10:10;;;;;;;5.50;1.60;;;11.30;99.90;;;;;;5071102;28;20408;-54
2022/01/04 04:12:36;;;;;;;5.20;1.70;;;11.30;99.90;;;;;;5070815;28;20380;-53
2022/01/04 04:15:07;;;;;;;4.80;1.67;;;11.30;99.90;;;;;;5070876;28;20404;-53
2022/01/04 04:17:33;;;;;;;4.53;1.63;;;11.40;99.90;;;;;;5069643;28;20407;-53
2022/01/04 04:19:59;;;;;;;5.18;1.60;;;11.40;99.90;;;;;;5070706;28;20470;-53
2022/01/04 04:22:25;;;;;;;5.28;1.60;;;11.30;99.90;;;;;;5067387;28;20383;-53
2022/01/04 04:24:51;;;;;;;4.27;1.43;;;11.30;99.90;;;;;;5071612;28;20462;-53
2022/01/04 04:27:16;;;;;;;3.90;1.30;;;11.30;99.90;;;;;;5052566;28;20474;-53
2022/01/04 04:29:42;;;;;;;4.80;1.50;;;11.30;99.90;;;;;;5052397;28;20487;-53
2022/01/04 04:32:09;;;;;;;4.25;1.30;;;11.20;99.90;;;;;;5069774;28;20375;-53
2022/01/04 04:34:34;;;;;;;5.10;1.50;;;10.30;99.90;;;;;;5063329;28;20415;-53
2022/01/04 04:37:00;;;;;;;4.65;1.50;;;11.10;99.90;;;;;;5070913;28;20965;-53
2022/01/04 04:39:26;;;;;;;4.30;1.27;;;11.20;99.90;;;;;;5063152;28;20486;-53
2022/01/04 04:41:52;;;;;;;4.15;1.30;;;11.20;99.90;;;;;;5070407;28;20399;-53
2022/01/04 04:44:18;;;;;;;4.85;1.40;;;11.20;99.90;;;;;;5070330;28;20416;-53
2022/01/04 04:46:44;;;;;;;4.40;1.30;;;11.10;99.90;;;;;;5069609;28;20431;-53
2022/01/04 04:49:10;;;;;;;4.20;1.27;;;11.00;99.90;;;;;;5068446;28;20384;-53
2022/01/04 04:51:35;;;;;;;4.90;1.45;;;11.10;99.90;;;;;;5069751;28;20415;-54
2022/01/04 04:54:01;;;;;;;3.40;1.00;;;11.10;99.90;;;;;;5070155;28;20469;-53
2022/01/04 04:56:27;;;;;;;4.00;1.20;;;11.00;99.90;;;;;;5069405;28;20884;-54
2022/01/04 04:58:52;;;;;;;4.68;1.40;;;11.00;99.90;;;;;;5070471;28;20429;-53
2022/01/04 05:01:18;;;;;;;4.77;1.23;;;11.00;99.90;;;;;;5060763;28;20445;-55
2022/01/04 05:03:43;;;;;;;4.05;1.20;;;11.10;99.90;;;;;;5069507;28;20725;-54
2022/01/04 05:06:09;;;;;;;4.20;1.30;;;11.10;99.90;;;;;;5070181;28;20482;-54
2022/01/04 05:08:35;;;;;;;3.90;1.10;;;11.10;99.90;;;;;;5069659;28;20399;-54
2022/01/04 05:11:02;;;;;;;4.03;1.10;;;11.00;99.90;;;;;;5070109;28;20411;-54
2022/01/04 05:13:28;;;;;;;4.20;1.20;;;11.10;99.90;;;;;;5069246;28;20380;-55
2022/01/04 05:15:54;;;;;;;4.50;1.20;;;11.10;99.90;;;;;;5069564;28;20415;-54
2022/01/04 05:18:19;;;;;;;3.60;1.10;;;11.10;99.90;;;;;;5070080;28;20523;-54
2022/01/04 05:20:45;;;;;;;4.40;1.00;;;11.10;99.90;;;;;;5068793;28;20388;-55
2022/01/04 05:23:11;;;;;;;3.70;1.00;;;11.10;99.90;;;;;;5069971;28;20804;-54
2022/01/04 05:25:37;;;;;;;6.70;1.10;;;11.10;99.90;;;;;;5051420;28;20408;-54
2022/01/04 05:28:03;;;;;;;4.77;1.00;;;11.10;99.90;;;;;;5069485;28;20756;-53
2022/01/04 05:30:29;;;;;;;3.40;1.00;;;11.00;99.90;;;;;;5068950;28;20379;-53
2022/01/04 05:32:54;;;;;;;4.18;1.10;;;11.00;99.90;;;;;;5069599;28;20398;-53
2022/01/04 05:35:20;;;;;;;4.00;1.20;;;11.00;99.90;;;;;;5069777;28;20489;-53
2022/01/04 05:37:46;;;;;;;3.83;1.10;;;11.00;99.90;;;;;;5068665;28;20407;-54
2022/01/04 05:40:11;;;;;;;4.80;1.10;;;10.90;99.90;;;;;;5069770;28;20754;-53
2022/01/04 05:42:37;;;;;;;6.15;1.60;;;11.00;99.90;;;;;;5069021;28;20376;-53
2022/01/04 05:45:04;;;;;;;3.90;1.30;;;11.10;99.90;;;;;;5069408;28;20395;-53
2022/01/04 05:47:29;;;;;;;4.20;1.20;;;11.10;99.90;;;;;;5068721;28;20392;-53
2022/01/04 05:49:55;;;;;;;4.00;1.10;;;11.10;99.90;;;;;;5069519;28;20471;-54
2022/01/04 05:52:20;;;;;;;4.87;1.30;;;11.10;99.90;;;;;;5069589;28;20761;-53
2022/01/04 05:54:49;;;;;;;4.30;1.10;;;11.10;99.90;;;;;;5068472;28;20433;-53
2022/01/04 05:57:15;;;;;;;4.50;1.10;;;11.00;99.90;;;;;;5069480;28;20404;-53
2022/01/04 05:59:41;;;;;;;4.38;1.58;;;11.00;99.90;;;;;;5067843;28;20399;-53
2022/01/04 06:02:06;;;;;;;4.70;1.10;;;11.10;99.90;;;;;;5069572;28;20379;-53
2022/01/04 06:04:32;;;;;;;5.17;1.20;;;11.10;99.90;;;;;;5050343;28;20877;-53
2022/01/04 06:06:57;;;;;;;4.72;1.10;;;11.20;99.90;;;;;;5069481;28;20398;-53
2022/01/04 06:09:28;;;;;;;4.67;1.40;;;11.30;99.90;;;;;;5068720;28;20396;-54
2022/01/04 06:17:06;;;;;;;3.83;1.10;;;11.30;99.90;;;;;;5068793;28;20448;-54
2022/01/04 06:19:32;;;;;;;4.03;1.20;;;11.20;99.90;;;;;;5068464;28;20403;-53
2022/01/04 06:21:58;;;;;;;4.20;1.58;;;11.30;99.90;;;;;;5069171;28;20845;-53
2022/01/04 06:24:23;;;;;;;4.70;1.27;;;11.30;99.90;;;;;;5068544;28;20383;-53
2022/01/04 06:26:49;;;;;;;4.10;1.50;;;11.40;99.90;;;;;;5068648;28;20541;-53
2022/01/04 06:29:15;;;;;;;5.30;1.40;;;11.40;99.90;;;;;;5069098;28;20383;-53
2022/01/04 06:31:41;;;;;;;3.70;1.20;;;11.40;99.90;;;;;;5068021;28;20849;-53
2022/01/04 06:34:07;;;;;;;5.25;1.40;;;11.40;99.90;;;;;;5068937;28;20403;-53
2022/01/04 06:36:33;;;;;;;4.07;1.23;;;11.30;99.90;;;;;;5068130;28;20884;-53
2022/01/04 06:38:59;;;;;;;4.97;1.45;;;11.40;99.90;;;;;;5068839;28;20387;-53
2022/01/04 06:41:24;;;;;;;3.50;1.30;;;11.40;99.90;;;;;;5068296;28;20789;-53
2022/01/04 06:43:50;;;;;;;4.43;1.40;;;11.40;99.90;;;;;;5068272;28;20384;-53
2022/01/04 06:46:15;;;;;;;3.80;1.20;;;11.40;99.90;;;;;;5068483;28;20517;-53
2022/01/04 06:48:42;;;;;;;4.60;1.50;;;11.40;99.90;;;;;;5068381;28;20398;-53
2022/01/04 06:51:08;;;;;;;4.60;1.33;;;11.40;99.90;;;;;;5068356;28;20836;-53
2022/01/04 06:53:34;;;;;;;3.60;1.20;;;11.50;99.90;;;;;;5067883;28;20380;-53
2022/01/04 06:56:00;;;;;;;3.95;1.13;;;11.40;99.90;;;;;;5068741;28;20399;-53
2022/01/04 06:58:26;;;;;;;4.53;1.10;;;11.30;99.90;;;;;;5068195;28;20986;-53
2022/01/04 07:00:51;;;;;;;4.30;1.40;;;11.40;99.90;;;;;;5068190;28;20463;-53
2022/01/04 07:03:17;;;;;;;3.80;1.40;;;11.50;99.90;;;;;;5048418;28;20391;-53
2022/01/04 07:05:43;;;;;;;3.70;1.03;;;11.50;99.90;;;;;;5064282;28;20431;-53
2022/01/04 07:08:08;;;;;;;3.80;1.10;;;11.60;99.90;;;;;;5068852;28;20410;-53
2022/01/04 07:10:34;;;;;;;4.40;1.30;;;11.60;99.90;;;;;;5067663;28;20419;-53
2022/01/04 07:13:00;;;;;;;4.60;1.30;;;11.60;99.90;;;;;;5068375;28;20453;-53
2022/01/04 07:15:25;;;;;;;3.47;1.10;;;11.60;99.90;;;;;;5066231;28;20902;-53
2022/01/04 07:17:51;;;;;;;3.50;1.00;;;11.60;99.90;;;;;;5065410;28;20769;-53
2022/01/04 07:20:17;;;;;;;4.53;1.10;;;11.70;99.90;;;;;;5068389;28;20848;-53
2022/01/04 07:22:42;;;;;;;4.83;1.20;;;11.70;99.90;;;;;;5068076;28;20402;-53
2022/01/04 07:25:09;;;;;;;3.70;1.10;;;11.60;99.90;;;;;;5055058;28;20404;-53
2022/01/04 07:27:34;;;;;;;3.60;1.10;;;11.60;99.90;;;;;;5048890;28;20405;-53
2022/01/04 07:30:00;;;;;;;3.40;0.70;;;11.60;99.90;;;;;;5068929;28;20380;-53
2022/01/04 07:32:26;;;;;;;3.95;1.20;;;11.70;99.90;;;;;;5068501;28;20387;-53
2022/01/04 07:34:52;;;;;;;3.30;0.90;;;11.70;99.90;;;;;;5068302;28;20460;-54
2022/01/04 07:37:17;;;;;;;4.87;1.03;;;11.80;99.90;;;;;;5068575;28;20490;-54
2022/01/04 07:39:44;;;;;;;3.53;0.80;;;11.80;99.90;;;;;;5059695;28;20417;-54
2022/01/04 07:42:10;;;;;;;4.50;1.60;;;11.80;99.90;;;;;;5058364;28;20420;-54
2022/01/04 07:44:36;;;;;;;3.38;1.00;;;11.80;99.90;;;;;;5047876;28;20385;-53
2022/01/04 07:47:02;;;;;;;3.30;1.00;;;11.80;99.90;;;;;;5062713;28;20849;-53
2022/01/04 07:49:27;;;;;;;3.40;1.00;;;11.80;99.90;;;;;;5068329;28;20387;-53
2022/01/04 07:51:53;;;;;;;4.40;1.00;;;11.80;99.90;;;;;;5066145;28;20476;-51
2022/01/04 07:54:19;;;;;;;3.70;1.00;;;11.80;99.90;;;;;;5071325;28;20403;-51
2022/01/04 07:56:45;;;;;;;3.90;1.20;;;11.90;99.90;;;;;;5070913;28;20396;-51
2022/01/04 07:59:11;;;;;;;4.90;1.30;;;11.90;99.90;;;;;;5071491;28;20406;-51
2022/01/04 08:01:37;;;;;;;4.00;1.20;;;12.00;99.90;;;;;;5070344;28;20383;-51
2022/01/04 08:04:04;;;;;;;3.30;0.80;;;12.10;99.90;;;;;;5071772;28;20376;-52
2022/01/04 08:06:30;;;;;;;5.90;1.80;;;12.10;99.90;;;;;;5070867;28;20506;-51
2022/01/04 08:08:56;;;;;;;4.00;1.00;;;12.20;99.90;;;;;;5065528;28;20751;-51
2022/01/04 08:11:22;;;;;;;3.97;1.10;;;12.20;99.90;;;;;;5071153;28;20462;-51
2022/01/04 08:13:48;;;;;;;3.63;1.05;;;12.20;99.90;;;;;;5072036;28;20378;-51
2022/01/04 08:16:15;;;;;;;3.75;1.00;;;12.10;99.90;;;;;;5076873;28;20397;-51
2022/01/04 08:18:44;;;;;;;6.00;1.08;;;12.10;99.90;;;;;;5086842;28;20481;-52
2022/01/04 08:21:10;;;;;;;3.88;1.08;;;12.20;99.90;;;;;;5087079;28;20414;-51
2022/01/04 08:23:36;;;;;;;5.07;1.20;;;12.20;99.90;;;;;;5087535;28;20374;-51
2022/01/04 08:26:02;;;;;;;3.60;1.13;;;12.10;99.90;;;;;;5074699;28;20838;-51
2022/01/04 08:28:27;;;;;;;4.20;0.90;;;12.20;99.90;;;;;;5084551;28;20413;-51
2022/01/04 08:30:53;;;;;;;4.57;1.20;;;12.20;99.90;;;;;;5080566;28;20386;-51
2022/01/04 08:33:18;;;;;;;3.40;1.00;;;12.20;99.90;;;;;;5077675;28;20375;-51
2022/01/04 08:35:44;;;;;;;5.10;0.90;;;12.20;99.90;;;;;;5069334;28;20388;-50
2022/01/04 08:38:10;;;;;;;3.70;1.00;;;12.10;99.90;;;;;;5071892;28;20400;-51
2022/01/04 08:40:37;;;;;;;4.53;1.00;;;12.10;99.90;;;;;;5070286;28;20693;-51
2022/01/04 08:43:04;;;;;;;4.20;0.95;;;12.20;99.90;;;;;;5080705;28;20532;-51
2022/01/04 08:45:29;;;;;;;3.95;1.15;;;12.20;99.90;;;;;;5073695;28;20486;-54
2022/01/04 08:47:55;;;;;;;3.53;1.10;;;12.20;99.90;;;;;;5071889;28;20553;-49
2022/01/04 08:50:21;;;;;;;5.80;1.17;;;12.30;99.90;;;;;;5072201;28;20391;-49
2022/01/04 08:52:52;;;;;;;3.50;1.10;;;12.40;99.90;;;;;;5072813;28;20462;-49
2022/01/04 08:55:18;;;;;;;3.75;0.93;;;12.40;99.90;;;;;;5067343;28;20545;-49
2022/01/04 08:57:44;;;;;;;3.60;1.10;;;12.40;99.90;;;;;;5067567;28;20612;-52
2022/01/04 09:00:10;;;;;;;5.55;1.20;;;12.40;99.90;;;;;;5067672;28;20416;-52
2022/01/04 09:02:36;;;;;;;4.70;1.20;;;12.40;99.90;;;;;;5048981;28;20926;-52
2022/01/04 09:05:06;;;;;;;3.80;1.07;;;12.40;99.90;;;;;;5064824;28;20413;-49
2022/01/04 09:07:32;;;;;;;4.50;1.20;;;12.50;99.90;;;;;;5068542;28;20494;-49
2022/01/04 09:09:58;;;;;;;5.47;1.30;;;12.50;99.90;;;;;;5069682;28;20471;-48
2022/01/04 09:12:28;;;;;;;7.10;1.20;;;12.50;99.90;;;;;;5069883;28;20535;-48
2022/01/04 09:20:06;;;;;;;4.57;1.10;;;12.40;99.90;;;;;;5069109;28;20508;-50
2022/01/04 09:22:32;;;;;;;4.30;1.00;;;12.40;99.90;;;;;;5066188;28;20404;-51
2022/01/04 09:24:58;;;;;;;4.27;1.00;;;12.40;99.90;;;;;;5066805;28;20469;-49
2022/01/04 09:27:23;;;;;;;3.50;1.00;;;12.50;99.90;;;;;;5070234;28;20526;-50
2022/01/04 09:29:50;;;;;;;3.40;1.10;;;12.40;99.90;;;;;;5069959;28;20940;-50
2022/01/04 09:32:17;;;;;;;4.20;1.20;;;12.50;99.90;;;;;;5066842;28;20415;-50
2022/01/04 09:34:46;;;;;;;5.30;1.40;;;12.40;99.90;;;;;;5069313;28;20394;-50
2022/01/04 09:37:12;;;;;;;4.32;1.30;;;12.50;99.90;;;;;;5067231;28;20411;-49
2022/01/04 09:39:38;;;;;;;5.10;1.50;;;12.50;99.90;;;;;;5052335;28;20793;-50
2022/01/04 09:42:05;;;;;;;3.97;1.30;;;12.50;99.90;;;;;;5055655;28;20397;-50
2022/01/04 09:44:31;;;;;;;6.50;1.50;;;12.50;99.90;;;;;;5069691;28;20423;-50
2022/01/04 09:47:02;;;;;;;4.10;1.10;;;12.40;99.90;;;;;;5062187;28;20762;-50
2022/01/04 09:49:29;;;;;;;3.60;1.20;;;12.50;99.90;;;;;;5056110;28;20524;-52
2022/01/04 09:51:56;;;;;;;3.92;1.10;;;12.40;99.90;;;;;;5057517;28;20924;-50
2022/01/04 09:54:24;;;;;;;3.85;1.30;;;12.40;99.90;;;;;;5063076;28;20839;-50
2022/01/04 09:56:51;;;;;;;4.10;1.20;;;12.40;99.90;;;;;;5033464;28;20407;-50
2022/01/04 09:59:18;;;;;;;5.15;1.05;;;12.60;99.90;;;;;;5052859;28;20422;-50
2022/01/04 10:01:49;;;;;;;5.20;1.60;;;12.40;99.90;;;;;;5060156;28;20414;-51
2022/01/04 10:04:16;;;;;;;4.90;1.42;;;12.40;99.90;;;;;;5052693;28;20402;-51
2022/01/04 10:07:00;;;;;;;3.80;0.93;;;12.50;99.90;;;;;;5056252;28;20462;-52
2022/01/04 10:09:36;;;;;;;5.68;1.50;;;12.50;99.90;;;;;;5053264;28;20882;-49
2022/01/04 10:12:02;;;;;;;5.88;1.58;;;12.50;99.90;;;;;;5058194;28;20412;-50
2022/01/04 10:14:35;;;;;;;6.20;1.40;;;12.60;99.90;;;;;;5054318;28;20417;-52
2022/01/04 10:17:07;;;;;;;4.10;1.20;;;12.50;99.90;;;;;;5060874;28;20870;-50
2022/01/04 10:19:35;;;;;;;4.43;1.30;;;12.50;99.90;;;;;;5063707;28;20408;-50
2022/01/04 10:22:18;;;;;;;4.10;1.23;;;12.50;99.90;;;;;;5055307;28;20444;-50
2022/01/04 10:24:46;;;;;;;4.28;1.40;;;12.60;99.90;;;;;;5070591;28;20379;-50
2022/01/04 10:27:28;;;;;;;4.80;1.40;;;12.60;99.90;;;;;;5054680;28;20474;-50
2022/01/04 10:30:16;;;;;;;4.65;1.30;;;12.60;99.90;;;;;;5055509;28;20384;-52
2022/01/04 10:32:48;;;;;;;4.40;1.17;;;12.60;99.90;;;;;;5055190;28;21215;-52
2022/01/04 10:35:37;;;;;;;4.90;1.52;;;12.50;99.90;;;;;;5055677;28;20894;-53
2022/01/04 10:38:11;;;;;;;5.53;1.55;;;12.60;99.90;;;;;;5055923;28;20403;-53
2022/01/04 10:40:38;;;;;;;4.47;1.23;;;12.60;99.90;;;;;;5053113;28;20933;-52
2022/01/04 10:43:10;;;;;;;4.28;1.60;;;12.60;99.90;;;;;;5075197;28;20380;-53
2022/01/04 10:45:37;;;;;;;3.78;1.00;;;12.60;99.90;;;;;;5067647;28;20948;-52
2022/01/04 10:48:25;;;;;;;4.10;1.27;;;12.60;99.90;;;;;;5072220;28;20460;-52
2022/01/04 10:50:57;;;;;;;4.63;1.25;;;12.60;99.90;;;;;;5047458;28;21225;-52
2022/01/04 10:53:30;;;;;;;5.10;1.30;;;12.60;99.90;;;;;;5062101;28;20384;-52
2022/01/04 10:56:01;;;;;;;4.70;1.30;;;12.60;99.90;;;;;;5070577;28;20388;-52
2022/01/04 10:58:40;;;;;;;3.63;1.20;;;12.60;99.90;;;;;;5051066;28;20428;-52
2022/01/04 11:01:11;;;;;;;4.40;1.27;;;12.50;99.90;;;;;;5052469;28;20409;-52
2022/01/04 11:03:49;;;;;;;4.40;1.30;;;12.50;99.90;;;;;;5054289;28;20415;-52
2022/01/04 11:06:27;;;;;;;3.50;1.10;;;12.50;99.90;;;;;;5048591;28;20401;-52
2022/01/04 11:08:53;;;;;;;3.63;1.13;;;12.60;99.90;;;;;;5057468;28;20824;-52
2022/01/04 11:11:19;;;;;;;4.43;1.10;;;12.70;99.90;;;;;;5050120;28;20393;-52
2022/01/04 11:13:45;;;;;;;3.78;1.30;;;12.70;99.90;;;;;;5035725;28;20464;-52
2022/01/04 11:16:10;;;;;;;3.90;1.50;;;12.70;99.90;;;;;;5053004;28;20726;-52
2022/01/04 11:18:42;;;;;;;4.97;1.47;;;12.70;99.90;;;;;;5049262;28;20565;-52
2022/01/04 11:21:14;;;;;;;4.80;1.50;;;12.80;99.90;;;;;;5059181;28;20395;-51
2022/01/04 11:23:41;;;;;;;4.20;1.70;;;12.80;99.90;;;;;;5060842;28;20551;-52
2022/01/04 11:26:10;;;;;;;4.60;1.60;;;12.80;99.90;;;;;;5054541;28;20500;-51
2022/01/04 11:28:41;;;;;;;5.40;1.70;;;12.80;99.90;;;;;;5063015;28;20408;-52
2022/01/04 11:31:18;;;;;;;5.47;1.70;;;12.80;99.90;;;;;;5072651;28;20438;-52
2022/01/04 11:33:53;;;;;;;4.50;1.77;;;12.80;99.90;;;;;;5083765;28;20417;-52
2022/01/04 11:36:20;;;;;;;4.23;1.50;;;12.90;99.90;;;;;;5057187;28;20496;-52
2022/01/04 11:38:47;;;;;;;4.95;1.80;;;12.90;99.90;;;;;;5065530;28;20498;-52
2022/01/04 11:41:21;;;;;;;5.50;1.60;;;12.80;99.90;;;;;;5057207;28;20468;-51
2022/01/04 11:43:48;;;;;;;4.70;1.98;;;12.80;99.90;;;;;;5058362;28;20407;-51
2022/01/04 11:46:33;;;;;;;4.75;1.60;;;12.80;99.90;;;;;;5044778;28;20863;-52
2022/01/04 11:49:14;;;;;;;5.40;1.50;;;12.80;99.90;;;;;;5058906;28;20410;-51
2022/01/04 11:51:43;;;;;;;3.95;1.40;;;12.70;99.90;;;;;;5058350;28;20431;-52
2022/01/04 11:54:22;;;;;;;3.92;1.40;;;12.70;99.90;;;;;;5055192;28;20409;-52
2022/01/04 11:56:54;;;;;;;4.97;1.55;;;12.70;99.90;;;;;;5054857;28;20470;-52
2022/01/04 11:59:31;;;;;;;4.80;1.60;;;12.70;99.90;;;;;;5055190;28;20486;-54
2022/01/04 12:02:23;;;;;;;5.25;1.50;;;12.70;99.90;;;;;;5060282;28;20431;-54
2022/01/04 12:04:51;;;;;;;4.80;1.60;;;12.60;99.90;;;;;;5052082;28;20412;-54
2022/01/04 12:07:39;;;;;;;5.50;1.90;;;12.50;99.90;;;;;;5054508;28;20404;-52
2022/01/04 12:10:20;;;;;;;5.17;1.50;;;12.60;99.90;;;;;;5052616;28;20492;-53
2022/01/04 12:12:59;;;;;;;4.30;1.55;;;12.50;99.90;;;;;;5058448;28;20443;-52
2022/01/04 12:15:33;;;;;;;4.53;1.70;;;12.60;99.90;;;;;;5057027;28;21093;-52
2022/01/04 12:18:05;;;;;;;4.60;1.70;;;12.60;99.90;;;;;;5062680;28;20906;-52
2022/01/04 12:20:43;;;;;;;4.80;1.70;;;12.60;99.90;;;;;;5056941;28;20410;-52
2022/01/04 12:23:27;;;;;;;5.10;1.60;;;12.50;99.90;;;;;;5068234;28;21352;-52
2022/01/04 12:26:05;;;;;;;4.90;1.70;;;12.50;99.90;;;;;;5066550;28;20453;-52
2022/01/04 12:28:31;;;;;;;4.90;1.88;;;12.50;99.90;;;;;;5067232;28;20415;-52
2022/01/04 12:31:20;;;;;;;7.30;1.90;;;12.50;99.90;;;;;;5062581;28;20406;-52
2022/01/04 12:33:53;;;;;;;5.22;1.92;;;12.50;99.90;;;;;;5027565;28;20467;-52
2022/01/04 12:36:42;;;;;;;5.10;1.97;;;12.50;99.90;;;;;;5061697;28;20418;-52
2022/01/04 12:39:16;;;;;;;4.97;1.60;;;12.50;99.90;;;;;;5064336;28;20872;-52
2022/01/04 12:41:44;;;;;;;4.45;1.70;;;12.50;99.90;;;;;;5072405;28;20449;-53
2022/01/04 12:44:11;;;;;;;4.80;1.67;;;12.50;99.90;;;;;;5061153;28;20406;-52
2022/01/04 12:46:41;;;;;;;5.05;1.65;;;12.50;99.90;;;;;;5044538;28;20817;-52
2022/01/04 12:49:15;;;;;;;6.53;1.60;;;12.40;99.90;;;;;;5066889;28;20404;-52
2022/01/04 12:51:53;;;;;;;6.95;1.70;;;12.50;99.90;;;;;;5059843;28;20388;-52
2022/01/04 12:54:22;;;;;;;5.95;1.75;;;12.50;99.90;;;;;;5070618;28;20402;-52
2022/01/04 12:56:47;;;;;;;4.70;1.52;;;12.50;99.90;;;;;;5066322;28;20412;-52
2022/01/04 12:59:25;;;;;;;4.50;1.60;;;12.50;99.90;;;;;;5059388;28;20401;-52
2022/01/04 13:02:03;;;;;;;4.57;1.70;;;12.40;99.90;;;;;;5066603;28;20395;-52
2022/01/04 13:04:35;;;;;;;4.95;2.00;;;12.30;99.90;;;;;;5056289;28;20398;-52